sensor_id;sensor_type;location;lat;lon;timestamp;P1;durP1;ratioP1;P2;durP2;ratioP2
76786;SDS011;65739;51.482;5.702;2023-05-07T00:01:13;22.23;;;14.13;;
76786;SDS011;65739;51.482;5.702;2023-05-07T00:03:38;18.58;;;13.65;;
76786;SDS011;65739;51.482;5.702;2023-05-07T00:06:04;20.65;;;13.98;;
76786;SDS011;65739;51.482;5.702;2023-05-07T00:08:30;22.20;;;14.45;;
76786;SDS011;65739;51.482;5.702;2023-05-07T00:10:55;19.08;;;14.07;;
76786;SDS011;65739;51.482;5.702;2023-05-07T00:13:21;22.65;;;14.02;;
76786;SDS011;65739;51.482;5.702;2023-05-07T00:15:46;19.33;;;13.57;;
76786;SDS011;65739;51.482;5.702;2023-05-07T00:18:12;20.38;;;14.05;;
76786;SDS011;65739;51.482;5.702;2023-05-07T00:20:37;20.73;;;14.18;;
76786;SDS011;65739;51.482;5.702;2023-05-07T00:23:03;18.90;;;13.95;;
76786;SDS011;65739;51.482;5.702;2023-05-07T00:25:28;19.83;;;14.10;;
76786;SDS011;65739;51.482;5.702;2023-05-07T00:27:54;21.42;;;14.77;;
76786;SDS011;65739;51.482;5.702;2023-05-07T00:30:20;17.42;;;14.23;;
76786;SDS011;65739;51.482;5.702;2023-05-07T00:32:45;17.27;;;14.00;;
76786;SDS011;65739;51.482;5.702;2023-05-07T00:35:11;23.10;;;15.10;;
76786;SDS011;65739;51.482;5.702;2023-05-07T00:37:37;16.73;;;14.68;;
76786;SDS011;65739;51.482;5.702;2023-05-07T00:40:02;18.77;;;14.85;;
76786;SDS011;65739;51.482;5.702;2023-05-07T00:42:32;17.45;;;13.85;;
76786;SDS011;65739;51.482;5.702;2023-05-07T00:44:57;16.65;;;12.63;;
76786;SDS011;65739;51.482;5.702;2023-05-07T00:47:23;15.95;;;13.10;;
76786;SDS011;65739;51.482;5.702;2023-05-07T00:49:50;17.10;;;13.40;;
76786;SDS011;65739;51.482;5.702;2023-05-07T00:52:16;21.45;;;14.05;;
76786;SDS011;65739;51.482;5.702;2023-05-07T00:54:44;19.90;;;14.18;;
76786;SDS011;65739;51.482;5.702;2023-05-07T00:57:10;17.90;;;13.52;;
76786;SDS011;65739;51.482;5.702;2023-05-07T00:59:38;21.95;;;14.85;;
76786;SDS011;65739;51.482;5.702;2023-05-07T01:02:05;19.27;;;15.50;;
76786;SDS011;65739;51.482;5.702;2023-05-07T01:04:31;21.83;;;15.32;;
76786;SDS011;65739;51.482;5.702;2023-05-07T01:06:57;20.67;;;15.30;;
76786;SDS011;65739;51.482;5.702;2023-05-07T01:09:24;22.27;;;15.02;;
76786;SDS011;65739;51.482;5.702;2023-05-07T01:11:50;21.42;;;15.63;;
76786;SDS011;65739;51.482;5.702;2023-05-07T01:14:17;18.23;;;14.90;;
76786;SDS011;65739;51.482;5.702;2023-05-07T01:16:43;20.75;;;16.52;;
76786;SDS011;65739;51.482;5.702;2023-05-07T01:19:09;21.35;;;16.40;;
76786;SDS011;65739;51.482;5.702;2023-05-07T01:21:38;26.65;;;14.88;;
76786;SDS011;65739;51.482;5.702;2023-05-07T01:24:09;18.98;;;14.98;;
76786;SDS011;65739;51.482;5.702;2023-05-07T01:26:35;19.17;;;15.55;;
76786;SDS011;65739;51.482;5.702;2023-05-07T01:29:00;23.50;;;15.90;;
76786;SDS011;65739;51.482;5.702;2023-05-07T01:31:26;18.13;;;15.32;;
76786;SDS011;65739;51.482;5.702;2023-05-07T01:33:51;18.42;;;15.98;;
76786;SDS011;65739;51.482;5.702;2023-05-07T01:36:19;19.63;;;16.38;;
76786;SDS011;65739;51.482;5.702;2023-05-07T01:38:46;23.95;;;16.52;;
76786;SDS011;65739;51.482;5.702;2023-05-07T01:41:12;22.13;;;17.63;;
76786;SDS011;65739;51.482;5.702;2023-05-07T01:43:38;22.33;;;16.83;;
76786;SDS011;65739;51.482;5.702;2023-05-07T01:46:06;22.30;;;17.88;;
76786;SDS011;65739;51.482;5.702;2023-05-07T01:48:34;23.77;;;18.08;;
76786;SDS011;65739;51.482;5.702;2023-05-07T01:51:00;23.58;;;17.98;;
76786;SDS011;65739;51.482;5.702;2023-05-07T01:53:27;24.63;;;18.98;;
76786;SDS011;65739;51.482;5.702;2023-05-07T01:55:53;20.45;;;17.90;;
76786;SDS011;65739;51.482;5.702;2023-05-07T01:58:18;26.63;;;18.80;;
76786;SDS011;65739;51.482;5.702;2023-05-07T02:00:44;25.60;;;17.70;;
76786;SDS011;65739;51.482;5.702;2023-05-07T02:03:10;27.10;;;19.60;;
76786;SDS011;65739;51.482;5.702;2023-05-07T02:05:35;23.40;;;18.70;;
76786;SDS011;65739;51.482;5.702;2023-05-07T02:08:01;27.13;;;19.60;;
76786;SDS011;65739;51.482;5.702;2023-05-07T02:10:26;25.52;;;19.75;;
76786;SDS011;65739;51.482;5.702;2023-05-07T02:12:52;34.45;;;21.20;;
76786;SDS011;65739;51.482;5.702;2023-05-07T02:15:17;26.33;;;20.88;;
76786;SDS011;65739;51.482;5.702;2023-05-07T02:17:59;26.30;;;20.65;;
76786;SDS011;65739;51.482;5.702;2023-05-07T02:20:32;26.90;;;21.10;;
76786;SDS011;65739;51.482;5.702;2023-05-07T02:22:58;25.27;;;20.45;;
76786;SDS011;65739;51.482;5.702;2023-05-07T02:25:24;28.75;;;19.95;;
76786;SDS011;65739;51.482;5.702;2023-05-07T02:27:49;30.73;;;21.65;;
76786;SDS011;65739;51.482;5.702;2023-05-07T02:30:15;24.15;;;20.52;;
76786;SDS011;65739;51.482;5.702;2023-05-07T02:32:41;27.20;;;21.90;;
76786;SDS011;65739;51.482;5.702;2023-05-07T02:35:06;25.02;;;20.92;;
76786;SDS011;65739;51.482;5.702;2023-05-07T02:37:32;26.77;;;20.15;;
76786;SDS011;65739;51.482;5.702;2023-05-07T02:39:57;26.77;;;20.77;;
76786;SDS011;65739;51.482;5.702;2023-05-07T02:42:23;28.88;;;21.38;;
76786;SDS011;65739;51.482;5.702;2023-05-07T02:44:48;28.58;;;20.75;;
76786;SDS011;65739;51.482;5.702;2023-05-07T02:47:14;28.08;;;21.02;;
76786;SDS011;65739;51.482;5.702;2023-05-07T02:49:40;28.25;;;20.90;;
76786;SDS011;65739;51.482;5.702;2023-05-07T02:52:06;30.02;;;23.15;;
76786;SDS011;65739;51.482;5.702;2023-05-07T02:54:32;27.80;;;21.48;;
76786;SDS011;65739;51.482;5.702;2023-05-07T02:56:57;26.73;;;21.42;;
76786;SDS011;65739;51.482;5.702;2023-05-07T02:59:23;30.27;;;21.70;;
76786;SDS011;65739;51.482;5.702;2023-05-07T03:01:51;26.10;;;20.85;;
76786;SDS011;65739;51.482;5.702;2023-05-07T03:04:16;27.92;;;21.67;;
76786;SDS011;65739;51.482;5.702;2023-05-07T03:06:42;30.48;;;21.60;;
76786;SDS011;65739;51.482;5.702;2023-05-07T03:09:10;32.78;;;23.77;;
76786;SDS011;65739;51.482;5.702;2023-05-07T03:11:36;27.80;;;22.05;;
76786;SDS011;65739;51.482;5.702;2023-05-07T03:14:02;30.38;;;21.55;;
76786;SDS011;65739;51.482;5.702;2023-05-07T03:16:27;32.10;;;20.75;;
76786;SDS011;65739;51.482;5.702;2023-05-07T03:18:53;29.73;;;22.77;;
76786;SDS011;65739;51.482;5.702;2023-05-07T03:21:18;29.50;;;23.17;;
76786;SDS011;65739;51.482;5.702;2023-05-07T03:23:44;29.40;;;21.73;;
76786;SDS011;65739;51.482;5.702;2023-05-07T03:26:10;31.30;;;23.20;;
76786;SDS011;65739;51.482;5.702;2023-05-07T03:28:36;33.25;;;24.35;;
76786;SDS011;65739;51.482;5.702;2023-05-07T03:31:02;29.33;;;23.73;;
76786;SDS011;65739;51.482;5.702;2023-05-07T03:33:27;31.40;;;24.05;;
76786;SDS011;65739;51.482;5.702;2023-05-07T03:35:53;31.58;;;24.52;;
76786;SDS011;65739;51.482;5.702;2023-05-07T03:38:18;33.42;;;24.52;;
76786;SDS011;65739;51.482;5.702;2023-05-07T03:40:44;29.80;;;23.77;;
76786;SDS011;65739;51.482;5.702;2023-05-07T03:43:09;32.35;;;24.88;;
76786;SDS011;65739;51.482;5.702;2023-05-07T03:45:35;31.92;;;25.00;;
76786;SDS011;65739;51.482;5.702;2023-05-07T03:48:00;32.83;;;24.92;;
76786;SDS011;65739;51.482;5.702;2023-05-07T03:50:26;32.85;;;24.60;;
76786;SDS011;65739;51.482;5.702;2023-05-07T03:52:52;36.38;;;25.75;;
76786;SDS011;65739;51.482;5.702;2023-05-07T03:55:17;32.33;;;25.05;;
76786;SDS011;65739;51.482;5.702;2023-05-07T03:57:43;29.17;;;23.80;;
76786;SDS011;65739;51.482;5.702;2023-05-07T04:00:08;33.88;;;25.90;;
76786;SDS011;65739;51.482;5.702;2023-05-07T04:02:34;37.50;;;25.88;;
76786;SDS011;65739;51.482;5.702;2023-05-07T04:05:00;32.75;;;25.70;;
76786;SDS011;65739;51.482;5.702;2023-05-07T04:07:26;34.60;;;26.38;;
76786;SDS011;65739;51.482;5.702;2023-05-07T04:09:51;34.22;;;25.50;;
76786;SDS011;65739;51.482;5.702;2023-05-07T04:12:17;35.60;;;26.30;;
76786;SDS011;65739;51.482;5.702;2023-05-07T04:14:42;34.42;;;24.27;;
76786;SDS011;65739;51.482;5.702;2023-05-07T04:17:08;34.70;;;26.95;;
76786;SDS011;65739;51.482;5.702;2023-05-07T04:19:35;39.97;;;27.58;;
76786;SDS011;65739;51.482;5.702;2023-05-07T04:22:01;35.10;;;26.58;;
76786;SDS011;65739;51.482;5.702;2023-05-07T04:24:26;35.10;;;26.50;;
76786;SDS011;65739;51.482;5.702;2023-05-07T04:26:52;38.25;;;27.48;;
76786;SDS011;65739;51.482;5.702;2023-05-07T04:29:17;39.03;;;27.45;;
76786;SDS011;65739;51.482;5.702;2023-05-07T04:31:43;41.60;;;28.10;;
76786;SDS011;65739;51.482;5.702;2023-05-07T04:34:10;42.50;;;27.00;;
76786;SDS011;65739;51.482;5.702;2023-05-07T04:36:36;33.05;;;26.50;;
76786;SDS011;65739;51.482;5.702;2023-05-07T04:39:05;33.95;;;26.30;;
76786;SDS011;65739;51.482;5.702;2023-05-07T04:41:31;32.58;;;26.13;;
76786;SDS011;65739;51.482;5.702;2023-05-07T04:43:57;37.65;;;26.42;;
76786;SDS011;65739;51.482;5.702;2023-05-07T04:46:23;34.22;;;25.55;;
76786;SDS011;65739;51.482;5.702;2023-05-07T04:48:49;35.58;;;24.65;;
76786;SDS011;65739;51.482;5.702;2023-05-07T04:51:15;42.03;;;26.17;;
76786;SDS011;65739;51.482;5.702;2023-05-07T04:53:40;35.03;;;26.13;;
76786;SDS011;65739;51.482;5.702;2023-05-07T04:56:07;35.05;;;24.30;;
76786;SDS011;65739;51.482;5.702;2023-05-07T04:58:33;32.38;;;25.17;;
76786;SDS011;65739;51.482;5.702;2023-05-07T05:00:59;28.25;;;23.05;;
76786;SDS011;65739;51.482;5.702;2023-05-07T05:03:25;34.70;;;23.95;;
76786;SDS011;65739;51.482;5.702;2023-05-07T05:05:51;27.95;;;22.50;;
76786;SDS011;65739;51.482;5.702;2023-05-07T05:08:17;36.20;;;23.48;;
76786;SDS011;65739;51.482;5.702;2023-05-07T05:10:42;34.05;;;23.80;;
76786;SDS011;65739;51.482;5.702;2023-05-07T05:13:08;29.30;;;23.10;;
76786;SDS011;65739;51.482;5.702;2023-05-07T05:15:35;31.42;;;23.58;;
76786;SDS011;65739;51.482;5.702;2023-05-07T05:18:00;29.55;;;22.23;;
76786;SDS011;65739;51.482;5.702;2023-05-07T05:20:26;30.10;;;22.00;;
76786;SDS011;65739;51.482;5.702;2023-05-07T05:22:52;32.63;;;22.80;;
76786;SDS011;65739;51.482;5.702;2023-05-07T05:25:20;26.02;;;21.60;;
76786;SDS011;65739;51.482;5.702;2023-05-07T05:27:46;30.60;;;21.88;;
76786;SDS011;65739;51.482;5.702;2023-05-07T05:30:11;26.92;;;20.70;;
76786;SDS011;65739;51.482;5.702;2023-05-07T05:32:40;28.75;;;21.98;;
76786;SDS011;65739;51.482;5.702;2023-05-07T05:35:06;26.30;;;21.73;;
76786;SDS011;65739;51.482;5.702;2023-05-07T05:37:32;25.90;;;21.13;;
76786;SDS011;65739;51.482;5.702;2023-05-07T05:39:57;25.83;;;21.70;;
76786;SDS011;65739;51.482;5.702;2023-05-07T05:42:23;25.02;;;20.52;;
76786;SDS011;65739;51.482;5.702;2023-05-07T05:44:49;23.55;;;19.40;;
76786;SDS011;65739;51.482;5.702;2023-05-07T05:47:17;25.35;;;19.33;;
76786;SDS011;65739;51.482;5.702;2023-05-07T05:49:42;23.67;;;17.55;;
76786;SDS011;65739;51.482;5.702;2023-05-07T05:52:08;22.63;;;17.48;;
76786;SDS011;65739;51.482;5.702;2023-05-07T05:54:34;25.55;;;18.92;;
76786;SDS011;65739;51.482;5.702;2023-05-07T05:57:00;22.75;;;17.02;;
76786;SDS011;65739;51.482;5.702;2023-05-07T05:59:29;23.20;;;17.05;;
76786;SDS011;65739;51.482;5.702;2023-05-07T06:01:55;18.77;;;16.27;;
76786;SDS011;65739;51.482;5.702;2023-05-07T06:04:21;20.73;;;16.55;;
76786;SDS011;65739;51.482;5.702;2023-05-07T06:06:46;22.48;;;16.25;;
76786;SDS011;65739;51.482;5.702;2023-05-07T06:09:12;21.40;;;16.05;;
76786;SDS011;65739;51.482;5.702;2023-05-07T06:11:37;20.20;;;16.40;;
76786;SDS011;65739;51.482;5.702;2023-05-07T06:14:06;23.70;;;15.88;;
76786;SDS011;65739;51.482;5.702;2023-05-07T06:16:31;18.40;;;14.43;;
76786;SDS011;65739;51.482;5.702;2023-05-07T06:18:57;19.88;;;14.55;;
76786;SDS011;65739;51.482;5.702;2023-05-07T06:21:22;19.20;;;15.23;;
76786;SDS011;65739;51.482;5.702;2023-05-07T06:23:48;16.67;;;14.98;;
76786;SDS011;65739;51.482;5.702;2023-05-07T06:26:14;19.98;;;15.43;;
76786;SDS011;65739;51.482;5.702;2023-05-07T06:28:39;17.42;;;15.63;;
76786;SDS011;65739;51.482;5.702;2023-05-07T06:31:12;15.90;;;14.20;;
76786;SDS011;65739;51.482;5.702;2023-05-07T06:33:37;16.70;;;14.70;;
76786;SDS011;65739;51.482;5.702;2023-05-07T06:36:03;17.30;;;13.80;;
76786;SDS011;65739;51.482;5.702;2023-05-07T06:38:30;16.67;;;13.70;;
76786;SDS011;65739;51.482;5.702;2023-05-07T06:40:55;14.35;;;12.88;;
76786;SDS011;65739;51.482;5.702;2023-05-07T06:43:22;16.25;;;13.38;;
76786;SDS011;65739;51.482;5.702;2023-05-07T06:45:47;15.57;;;13.88;;
76786;SDS011;65739;51.482;5.702;2023-05-07T06:48:13;17.80;;;12.65;;
76786;SDS011;65739;51.482;5.702;2023-05-07T06:50:38;18.80;;;13.68;;
76786;SDS011;65739;51.482;5.702;2023-05-07T06:53:04;18.05;;;13.73;;
76786;SDS011;65739;51.482;5.702;2023-05-07T06:55:30;21.45;;;14.05;;
76786;SDS011;65739;51.482;5.702;2023-05-07T06:57:55;15.27;;;13.40;;
76786;SDS011;65739;51.482;5.702;2023-05-07T07:00:23;17.05;;;13.00;;
76786;SDS011;65739;51.482;5.702;2023-05-07T07:02:48;15.27;;;13.25;;
76786;SDS011;65739;51.482;5.702;2023-05-07T07:05:14;14.88;;;13.27;;
76786;SDS011;65739;51.482;5.702;2023-05-07T07:07:40;18.98;;;14.07;;
76786;SDS011;65739;51.482;5.702;2023-05-07T07:10:05;16.90;;;13.32;;
76786;SDS011;65739;51.482;5.702;2023-05-07T07:12:31;14.95;;;12.85;;
76786;SDS011;65739;51.482;5.702;2023-05-07T07:14:57;15.75;;;12.35;;
76786;SDS011;65739;51.482;5.702;2023-05-07T07:17:22;14.05;;;12.10;;
76786;SDS011;65739;51.482;5.702;2023-05-07T07:19:48;15.38;;;12.32;;
76786;SDS011;65739;51.482;5.702;2023-05-07T07:22:13;16.08;;;12.15;;
76786;SDS011;65739;51.482;5.702;2023-05-07T07:24:39;16.30;;;11.52;;
76786;SDS011;65739;51.482;5.702;2023-05-07T07:27:05;14.98;;;12.82;;
76786;SDS011;65739;51.482;5.702;2023-05-07T07:29:30;14.85;;;11.63;;
76786;SDS011;65739;51.482;5.702;2023-05-07T07:31:56;12.45;;;10.93;;
76786;SDS011;65739;51.482;5.702;2023-05-07T07:34:21;15.50;;;10.60;;
76786;SDS011;65739;51.482;5.702;2023-05-07T07:36:47;11.77;;;10.38;;
76786;SDS011;65739;51.482;5.702;2023-05-07T07:39:12;14.25;;;10.55;;
76786;SDS011;65739;51.482;5.702;2023-05-07T07:41:38;14.32;;;11.05;;
76786;SDS011;65739;51.482;5.702;2023-05-07T07:44:04;12.57;;;10.80;;
76786;SDS011;65739;51.482;5.702;2023-05-07T07:46:32;13.82;;;10.65;;
76786;SDS011;65739;51.482;5.702;2023-05-07T07:48:58;14.60;;;10.57;;
76786;SDS011;65739;51.482;5.702;2023-05-07T07:51:24;14.57;;;10.73;;
76786;SDS011;65739;51.482;5.702;2023-05-07T07:53:54;12.70;;;9.40;;
76786;SDS011;65739;51.482;5.702;2023-05-07T07:56:19;15.63;;;10.43;;
76786;SDS011;65739;51.482;5.702;2023-05-07T07:58:45;15.25;;;10.95;;
76786;SDS011;65739;51.482;5.702;2023-05-07T08:01:11;12.98;;;10.65;;
76786;SDS011;65739;51.482;5.702;2023-05-07T08:03:37;12.15;;;10.52;;
76786;SDS011;65739;51.482;5.702;2023-05-07T08:06:03;12.00;;;10.45;;
76786;SDS011;65739;51.482;5.702;2023-05-07T08:08:29;16.80;;;10.77;;
76786;SDS011;65739;51.482;5.702;2023-05-07T08:10:54;12.15;;;10.05;;
76786;SDS011;65739;51.482;5.702;2023-05-07T08:13:20;12.57;;;9.95;;
76786;SDS011;65739;51.482;5.702;2023-05-07T08:15:45;13.05;;;10.18;;
76786;SDS011;65739;51.482;5.702;2023-05-07T08:18:11;14.85;;;10.27;;
76786;SDS011;65739;51.482;5.702;2023-05-07T08:20:37;11.63;;;10.30;;
76786;SDS011;65739;51.482;5.702;2023-05-07T08:23:04;16.02;;;11.02;;
76786;SDS011;65739;51.482;5.702;2023-05-07T08:25:32;16.98;;;11.68;;
76786;SDS011;65739;51.482;5.702;2023-05-07T08:27:58;13.38;;;10.23;;
76786;SDS011;65739;51.482;5.702;2023-05-07T08:30:24;12.43;;;10.18;;
76786;SDS011;65739;51.482;5.702;2023-05-07T08:32:49;12.43;;;10.32;;
76786;SDS011;65739;51.482;5.702;2023-05-07T08:35:15;14.45;;;11.15;;
76786;SDS011;65739;51.482;5.702;2023-05-07T08:37:40;14.77;;;12.15;;
76786;SDS011;65739;51.482;5.702;2023-05-07T08:40:06;14.35;;;10.93;;
76786;SDS011;65739;51.482;5.702;2023-05-07T08:42:33;17.50;;;11.88;;
76786;SDS011;65739;51.482;5.702;2023-05-07T08:45:01;13.60;;;10.63;;
76786;SDS011;65739;51.482;5.702;2023-05-07T08:47:32;16.35;;;11.32;;
76786;SDS011;65739;51.482;5.702;2023-05-07T08:50:09;14.07;;;12.23;;
76786;SDS011;65739;51.482;5.702;2023-05-07T08:52:35;20.63;;;12.02;;
76786;SDS011;65739;51.482;5.702;2023-05-07T08:55:01;12.15;;;10.63;;
76786;SDS011;65739;51.482;5.702;2023-05-07T08:57:28;12.18;;;9.73;;
76786;SDS011;65739;51.482;5.702;2023-05-07T08:59:54;12.75;;;9.48;;
76786;SDS011;65739;51.482;5.702;2023-05-07T09:02:20;11.23;;;10.02;;
76786;SDS011;65739;51.482;5.702;2023-05-07T09:04:45;12.80;;;10.85;;
76786;SDS011;65739;51.482;5.702;2023-05-07T09:07:11;13.48;;;9.90;;
76786;SDS011;65739;51.482;5.702;2023-05-07T09:09:37;14.20;;;10.48;;
76786;SDS011;65739;51.482;5.702;2023-05-07T09:12:02;10.65;;;9.55;;
76786;SDS011;65739;51.482;5.702;2023-05-07T09:14:28;11.75;;;10.07;;
76786;SDS011;65739;51.482;5.702;2023-05-07T09:16:55;11.52;;;10.32;;
76786;SDS011;65739;51.482;5.702;2023-05-07T09:19:24;12.32;;;9.65;;
76786;SDS011;65739;51.482;5.702;2023-05-07T09:21:57;12.30;;;9.00;;
76786;SDS011;65739;51.482;5.702;2023-05-07T09:24:24;9.68;;;8.73;;
76786;SDS011;65739;51.482;5.702;2023-05-07T09:26:50;13.57;;;9.60;;
76786;SDS011;65739;51.482;5.702;2023-05-07T09:29:15;11.95;;;9.88;;
76786;SDS011;65739;51.482;5.702;2023-05-07T09:31:42;11.40;;;9.65;;
76786;SDS011;65739;51.482;5.702;2023-05-07T09:34:07;11.60;;;9.60;;
76786;SDS011;65739;51.482;5.702;2023-05-07T09:36:33;10.80;;;9.30;;
76786;SDS011;65739;51.482;5.702;2023-05-07T09:38:59;13.00;;;9.15;;
76786;SDS011;65739;51.482;5.702;2023-05-07T09:41:25;9.73;;;8.05;;
76786;SDS011;65739;51.482;5.702;2023-05-07T09:43:54;12.75;;;8.88;;
76786;SDS011;65739;51.482;5.702;2023-05-07T09:46:22;8.70;;;7.32;;
76786;SDS011;65739;51.482;5.702;2023-05-07T09:48:54;11.85;;;8.85;;
76786;SDS011;65739;51.482;5.702;2023-05-07T09:53:56;12.82;;;8.82;;
76786;SDS011;65739;51.482;5.702;2023-05-07T09:56:25;10.27;;;9.23;;
76786;SDS011;65739;51.482;5.702;2023-05-07T09:58:52;11.80;;;8.30;;
76786;SDS011;65739;51.482;5.702;2023-05-07T10:01:20;9.40;;;7.60;;
76786;SDS011;65739;51.482;5.702;2023-05-07T10:03:47;9.10;;;7.35;;
76786;SDS011;65739;51.482;5.702;2023-05-07T10:06:14;11.98;;;8.25;;
76786;SDS011;65739;51.482;5.702;2023-05-07T10:08:40;10.88;;;7.97;;
76786;SDS011;65739;51.482;5.702;2023-05-07T10:11:08;8.85;;;7.95;;
76786;SDS011;65739;51.482;5.702;2023-05-07T10:13:38;13.20;;;7.57;;
76786;SDS011;65739;51.482;5.702;2023-05-07T10:16:05;11.63;;;6.93;;
76786;SDS011;65739;51.482;5.702;2023-05-07T10:18:31;8.57;;;6.97;;
76786;SDS011;65739;51.482;5.702;2023-05-07T10:21:02;10.85;;;5.32;;
76786;SDS011;65739;51.482;5.702;2023-05-07T10:23:33;6.97;;;6.28;;
76786;SDS011;65739;51.482;5.702;2023-05-07T10:25:59;12.48;;;5.93;;
76786;SDS011;65739;51.482;5.702;2023-05-07T10:28:33;7.65;;;6.20;;
76786;SDS011;65739;51.482;5.702;2023-05-07T10:34:07;8.48;;;6.05;;
76786;SDS011;65739;51.482;5.702;2023-05-07T10:36:36;6.25;;;5.55;;
76786;SDS011;65739;51.482;5.702;2023-05-07T10:39:02;5.85;;;5.22;;
76786;SDS011;65739;51.482;5.702;2023-05-07T10:41:28;6.90;;;4.80;;
76786;SDS011;65739;51.482;5.702;2023-05-07T10:43:53;8.02;;;5.45;;
76786;SDS011;65739;51.482;5.702;2023-05-07T10:46:19;5.63;;;5.13;;
76786;SDS011;65739;51.482;5.702;2023-05-07T10:51:26;8.70;;;4.18;;
76786;SDS011;65739;51.482;5.702;2023-05-07T10:56:38;6.53;;;4.28;;
76786;SDS011;65739;51.482;5.702;2023-05-07T11:01:55;6.40;;;3.72;;
76786;SDS011;65739;51.482;5.702;2023-05-07T11:04:24;6.70;;;4.30;;
76786;SDS011;65739;51.482;5.702;2023-05-07T11:15:09;6.85;;;3.88;;
76786;SDS011;65739;51.482;5.702;2023-05-07T11:26:15;12.70;;;4.35;;
76786;SDS011;65739;51.482;5.702;2023-05-07T11:28:41;6.40;;;4.47;;
76786;SDS011;65739;51.482;5.702;2023-05-07T11:31:08;8.05;;;4.47;;
76786;SDS011;65739;51.482;5.702;2023-05-07T11:33:35;6.30;;;4.32;;
76786;SDS011;65739;51.482;5.702;2023-05-07T11:36:04;6.60;;;4.07;;
76786;SDS011;65739;51.482;5.702;2023-05-07T11:38:36;5.05;;;3.80;;
76786;SDS011;65739;51.482;5.702;2023-05-07T11:41:02;7.80;;;3.45;;
76786;SDS011;65739;51.482;5.702;2023-05-07T11:43:30;5.55;;;3.40;;
76786;SDS011;65739;51.482;5.702;2023-05-07T11:46:04;4.85;;;3.65;;
76786;SDS011;65739;51.482;5.702;2023-05-07T11:48:37;7.07;;;3.67;;
76786;SDS011;65739;51.482;5.702;2023-05-07T11:51:07;5.78;;;4.03;;
76786;SDS011;65739;51.482;5.702;2023-05-07T11:53:38;6.30;;;4.13;;
76786;SDS011;65739;51.482;5.702;2023-05-07T11:56:11;4.72;;;3.45;;
76786;SDS011;65739;51.482;5.702;2023-05-07T11:58:38;5.13;;;3.35;;
76786;SDS011;65739;51.482;5.702;2023-05-07T12:01:06;4.85;;;3.10;;
76786;SDS011;65739;51.482;5.702;2023-05-07T12:03:34;5.27;;;3.00;;
76786;SDS011;65739;51.482;5.702;2023-05-07T12:05:59;4.88;;;3.10;;
76786;SDS011;65739;51.482;5.702;2023-05-07T12:08:25;6.82;;;3.75;;
76786;SDS011;65739;51.482;5.702;2023-05-07T12:10:51;6.45;;;4.40;;
76786;SDS011;65739;51.482;5.702;2023-05-07T12:13:21;9.25;;;4.30;;
76786;SDS011;65739;51.482;5.702;2023-05-07T12:15:54;6.53;;;4.18;;
76786;SDS011;65739;51.482;5.702;2023-05-07T12:18:20;6.75;;;4.05;;
76786;SDS011;65739;51.482;5.702;2023-05-07T12:20:47;7.25;;;4.47;;
76786;SDS011;65739;51.482;5.702;2023-05-07T12:23:13;8.77;;;4.03;;
76786;SDS011;65739;51.482;5.702;2023-05-07T12:25:39;5.72;;;3.25;;
76786;SDS011;65739;51.482;5.702;2023-05-07T12:28:08;5.57;;;3.03;;
76786;SDS011;65739;51.482;5.702;2023-05-07T12:30:38;3.77;;;2.63;;
76786;SDS011;65739;51.482;5.702;2023-05-07T12:33:04;8.13;;;3.05;;
76786;SDS011;65739;51.482;5.702;2023-05-07T12:35:30;7.32;;;3.25;;
76786;SDS011;65739;51.482;5.702;2023-05-07T12:37:58;7.18;;;2.70;;
76786;SDS011;65739;51.482;5.702;2023-05-07T12:40:33;4.80;;;2.80;;
76786;SDS011;65739;51.482;5.702;2023-05-07T12:43:02;4.65;;;3.00;;
76786;SDS011;65739;51.482;5.702;2023-05-07T12:45:28;7.13;;;3.30;;
76786;SDS011;65739;51.482;5.702;2023-05-07T12:47:53;4.57;;;2.85;;
76786;SDS011;65739;51.482;5.702;2023-05-07T12:50:19;7.93;;;3.38;;
76786;SDS011;65739;51.482;5.702;2023-05-07T12:52:46;4.88;;;3.28;;
76786;SDS011;65739;51.482;5.702;2023-05-07T12:55:16;9.50;;;3.47;;
76786;SDS011;65739;51.482;5.702;2023-05-07T12:57:45;6.82;;;3.35;;
76786;SDS011;65739;51.482;5.702;2023-05-07T13:00:13;6.40;;;3.53;;
76786;SDS011;65739;51.482;5.702;2023-05-07T13:02:39;8.40;;;3.50;;
76786;SDS011;65739;51.482;5.702;2023-05-07T13:05:09;9.90;;;3.40;;
76786;SDS011;65739;51.482;5.702;2023-05-07T13:07:34;3.97;;;2.00;;
76786;SDS011;65739;51.482;5.702;2023-05-07T13:10:01;3.60;;;1.70;;
76786;SDS011;65739;51.482;5.702;2023-05-07T13:12:28;4.72;;;2.03;;
76786;SDS011;65739;51.482;5.702;2023-05-07T13:14:53;2.58;;;1.70;;
76786;SDS011;65739;51.482;5.702;2023-05-07T13:17:19;5.05;;;2.35;;
76786;SDS011;65739;51.482;5.702;2023-05-07T13:19:44;3.22;;;1.90;;
76786;SDS011;65739;51.482;5.702;2023-05-07T13:22:10;4.13;;;2.50;;
76786;SDS011;65739;51.482;5.702;2023-05-07T13:24:35;8.25;;;2.78;;
76786;SDS011;65739;51.482;5.702;2023-05-07T13:27:01;5.07;;;2.30;;
76786;SDS011;65739;51.482;5.702;2023-05-07T13:29:27;8.38;;;2.05;;
76786;SDS011;65739;51.482;5.702;2023-05-07T13:31:55;4.50;;;2.25;;
76786;SDS011;65739;51.482;5.702;2023-05-07T13:34:21;4.38;;;2.42;;
76786;SDS011;65739;51.482;5.702;2023-05-07T13:36:47;7.22;;;3.05;;
76786;SDS011;65739;51.482;5.702;2023-05-07T13:39:12;6.75;;;3.25;;
76786;SDS011;65739;51.482;5.702;2023-05-07T13:41:38;7.13;;;2.90;;
76786;SDS011;65739;51.482;5.702;2023-05-07T13:44:04;6.22;;;2.60;;
76786;SDS011;65739;51.482;5.702;2023-05-07T13:46:29;9.45;;;3.50;;
76786;SDS011;65739;51.482;5.702;2023-05-07T13:48:55;7.32;;;3.38;;
76786;SDS011;65739;51.482;5.702;2023-05-07T13:51:21;10.18;;;4.43;;
76786;SDS011;65739;51.482;5.702;2023-05-07T13:53:47;10.55;;;4.95;;
76786;SDS011;65739;51.482;5.702;2023-05-07T13:56:13;5.85;;;4.05;;
76786;SDS011;65739;51.482;5.702;2023-05-07T13:58:39;8.57;;;4.35;;
76786;SDS011;65739;51.482;5.702;2023-05-07T14:01:05;9.23;;;4.65;;
76786;SDS011;65739;51.482;5.702;2023-05-07T14:03:31;8.40;;;4.55;;
76786;SDS011;65739;51.482;5.702;2023-05-07T14:05:58;8.30;;;4.88;;
76786;SDS011;65739;51.482;5.702;2023-05-07T14:08:25;9.30;;;4.88;;
76786;SDS011;65739;51.482;5.702;2023-05-07T14:10:51;10.10;;;5.10;;
76786;SDS011;65739;51.482;5.702;2023-05-07T14:13:16;9.27;;;5.00;;
76786;SDS011;65739;51.482;5.702;2023-05-07T14:15:42;7.15;;;4.82;;
76786;SDS011;65739;51.482;5.702;2023-05-07T14:18:11;9.93;;;5.45;;
76786;SDS011;65739;51.482;5.702;2023-05-07T14:20:40;7.47;;;5.70;;
76786;SDS011;65739;51.482;5.702;2023-05-07T14:23:08;9.05;;;5.15;;
76786;SDS011;65739;51.482;5.702;2023-05-07T14:25:33;9.10;;;5.03;;
76786;SDS011;65739;51.482;5.702;2023-05-07T14:27:59;6.65;;;4.55;;
76786;SDS011;65739;51.482;5.702;2023-05-07T14:30:25;6.88;;;4.38;;
76786;SDS011;65739;51.482;5.702;2023-05-07T14:32:50;11.63;;;5.13;;
76786;SDS011;65739;51.482;5.702;2023-05-07T14:35:17;8.50;;;4.85;;
76786;SDS011;65739;51.482;5.702;2023-05-07T14:37:43;8.32;;;5.43;;
76786;SDS011;65739;51.482;5.702;2023-05-07T14:40:08;12.65;;;6.15;;
76786;SDS011;65739;51.482;5.702;2023-05-07T14:42:34;7.32;;;5.15;;
76786;SDS011;65739;51.482;5.702;2023-05-07T14:45:00;12.55;;;5.47;;
76786;SDS011;65739;51.482;5.702;2023-05-07T14:47:26;11.25;;;5.75;;
76786;SDS011;65739;51.482;5.702;2023-05-07T14:49:51;9.73;;;5.60;;
76786;SDS011;65739;51.482;5.702;2023-05-07T14:52:18;8.65;;;5.88;;
76786;SDS011;65739;51.482;5.702;2023-05-07T14:54:43;11.43;;;5.68;;
76786;SDS011;65739;51.482;5.702;2023-05-07T14:57:13;8.15;;;5.72;;